sensor_id;sensor_type;location;lat;lon;timestamp;temperature;humidity
16511;DHT22;8368;48.772;8.754;2024-02-23T00:00:08;4.10;99.90
16511;DHT22;8368;48.772;8.754;2024-02-23T00:02:37;4.10;99.90
16511;DHT22;8368;48.772;8.754;2024-02-23T00:05:03;4.20;99.90
16511;DHT22;8368;48.772;8.754;2024-02-23T00:07:29;4.10;99.90
16511;DHT22;8368;48.772;8.754;2024-02-23T00:09:54;4.10;99.90
16511;DHT22;8368;48.772;8.754;2024-02-23T00:12:20;4.10;99.90
16511;DHT22;8368;48.772;8.754;2024-02-23T00:14:45;4.20;99.90
16511;DHT22;8368;48.772;8.754;2024-02-23T00:17:11;4.20;99.90
16511;DHT22;8368;48.772;8.754;2024-02-23T00:19:37;4.10;99.90
16511;DHT22;8368;48.772;8.754;2024-02-23T00:22:03;4.20;99.90
16511;DHT22;8368;48.772;8.754;2024-02-23T00:24:29;4.10;99.90
16511;DHT22;8368;48.772;8.754;2024-02-23T00:26:54;4.20;99.90
16511;DHT22;8368;48.772;8.754;2024-02-23T00:29:20;4.20;99.90
16511;DHT22;8368;48.772;8.754;2024-02-23T00:31:46;4.20;99.90
16511;DHT22;8368;48.772;8.754;2024-02-23T00:34:12;4.20;99.90
16511;DHT22;8368;48.772;8.754;2024-02-23T00:36:42;4.20;99.90
16511;DHT22;8368;48.772;8.754;2024-02-23T00:39:10;4.20;99.90
16511;DHT22;8368;48.772;8.754;2024-02-23T00:41:36;4.20;99.90
16511;DHT22;8368;48.772;8.754;2024-02-23T00:44:05;4.10;99.90
16511;DHT22;8368;48.772;8.754;2024-02-23T00:46:30;4.20;99.90
16511;DHT22;8368;48.772;8.754;2024-02-23T00:48:56;4.10;99.90
16511;DHT22;8368;48.772;8.754;2024-02-23T00:51:21;4.10;99.90
16511;DHT22;8368;48.772;8.754;2024-02-23T00:53:48;4.20;99.90
16511;DHT22;8368;48.772;8.754;2024-02-23T00:56:13;4.20;99.90
16511;DHT22;8368;48.772;8.754;2024-02-23T00:58:39;4.20;99.90
16511;DHT22;8368;48.772;8.754;2024-02-23T01:01:05;4.20;99.90
16511;DHT22;8368;48.772;8.754;2024-02-23T01:03:31;4.10;99.90
16511;DHT22;8368;48.772;8.754;2024-02-23T01:05:56;4.10;99.90
16511;DHT22;8368;48.772;8.754;2024-02-23T01:08:22;4.10;99.90
16511;DHT22;8368;48.772;8.754;2024-02-23T01:10:47;4.10;99.90
16511;DHT22;8368;48.772;8.754;2024-02-23T01:13:13;4.10;99.90
16511;DHT22;8368;48.772;8.754;2024-02-23T01:15:39;4.10;99.90
16511;DHT22;8368;48.772;8.754;2024-02-23T01:18:05;4.10;99.90
16511;DHT22;8368;48.772;8.754;2024-02-23T01:20:33;4.10;99.90
16511;DHT22;8368;48.772;8.754;2024-02-23T01:22:58;4.20;99.90
16511;DHT22;8368;48.772;8.754;2024-02-23T01:25:24;4.20;99.90
16511;DHT22;8368;48.772;8.754;2024-02-23T01:27:49;4.20;99.90
16511;DHT22;8368;48.772;8.754;2024-02-23T01:30:15;4.20;99.90
16511;DHT22;8368;48.772;8.754;2024-02-23T01:32:40;4.20;99.90
16511;DHT22;8368;48.772;8.754;2024-02-23T01:35:06;4.20;99.90
16511;DHT22;8368;48.772;8.754;2024-02-23T01:37:33;4.20;99.90
16511;DHT22;8368;48.772;8.754;2024-02-23T01:39:59;4.20;99.90
16511;DHT22;8368;48.772;8.754;2024-02-23T01:42:25;4.20;99.90
16511;DHT22;8368;48.772;8.754;2024-02-23T01:44:51;4.10;99.90
16511;DHT22;8368;48.772;8.754;2024-02-23T01:47:17;4.10;99.90
16511;DHT22;8368;48.772;8.754;2024-02-23T01:49:45;4.10;99.90
16511;DHT22;8368;48.772;8.754;2024-02-23T01:52:12;4.10;99.90
16511;DHT22;8368;48.772;8.754;2024-02-23T01:54:38;4.10;99.90
16511;DHT22;8368;48.772;8.754;2024-02-23T01:57:04;4.10;99.90
16511;DHT22;8368;48.772;8.754;2024-02-23T01:59:30;4.10;99.90
16511;DHT22;8368;48.772;8.754;2024-02-23T02:01:55;4.10;99.90
16511;DHT22;8368;48.772;8.754;2024-02-23T02:04:21;4.10;99.90
16511;DHT22;8368;48.772;8.754;2024-02-23T02:06:48;4.00;99.90
16511;DHT22;8368;48.772;8.754;2024-02-23T02:09:14;4.00;99.90
16511;DHT22;8368;48.772;8.754;2024-02-23T02:11:50;4.00;99.90
16511;DHT22;8368;48.772;8.754;2024-02-23T02:14:16;4.00;99.90
16511;DHT22;8368;48.772;8.754;2024-02-23T02:16:42;4.00;99.90
16511;DHT22;8368;48.772;8.754;2024-02-23T02:19:09;4.00;99.90
16511;DHT22;8368;48.772;8.754;2024-02-23T02:21:35;4.00;99.90
16511;DHT22;8368;48.772;8.754;2024-02-23T02:24:01;4.00;99.90
16511;DHT22;8368;48.772;8.754;2024-02-23T02:26:26;4.00;99.90
16511;DHT22;8368;48.772;8.754;2024-02-23T02:28:52;3.90;99.90
16511;DHT22;8368;48.772;8.754;2024-02-23T02:31:18;3.90;99.90
16511;DHT22;8368;48.772;8.754;2024-02-23T02:33:44;3.90;99.90
16511;DHT22;8368;48.772;8.754;2024-02-23T02:36:09;3.90;99.90
16511;DHT22;8368;48.772;8.754;2024-02-23T02:38:35;3.80;99.90
16511;DHT22;8368;48.772;8.754;2024-02-23T02:41:01;3.80;99.90
16511;DHT22;8368;48.772;8.754;2024-02-23T02:43:27;3.80;99.90
16511;DHT22;8368;48.772;8.754;2024-02-23T02:45:52;3.80;99.90
16511;DHT22;8368;48.772;8.754;2024-02-23T02:48:18;3.70;99.90
16511;DHT22;8368;48.772;8.754;2024-02-23T02:50:44;3.70;99.90
16511;DHT22;8368;48.772;8.754;2024-02-23T02:53:10;3.70;99.90
16511;DHT22;8368;48.772;8.754;2024-02-23T02:55:36;3.70;99.90
16511;DHT22;8368;48.772;8.754;2024-02-23T02:58:02;3.60;99.90
16511;DHT22;8368;48.772;8.754;2024-02-23T03:00:28;3.70;99.90
16511;DHT22;8368;48.772;8.754;2024-02-23T03:02:54;3.60;99.90
16511;DHT22;8368;48.772;8.754;2024-02-23T03:05:19;3.60;99.90
16511;DHT22;8368;48.772;8.754;2024-02-23T03:07:45;3.60;99.90
16511;DHT22;8368;48.772;8.754;2024-02-23T03:10:10;3.50;99.90
16511;DHT22;8368;48.772;8.754;2024-02-23T03:12:36;3.50;99.90
16511;DHT22;8368;48.772;8.754;2024-02-23T03:15:02;3.50;99.90
16511;DHT22;8368;48.772;8.754;2024-02-23T03:17:28;3.60;99.90
16511;DHT22;8368;48.772;8.754;2024-02-23T03:19:54;3.50;99.90
16511;DHT22;8368;48.772;8.754;2024-02-23T03:22:19;3.50;99.90
16511;DHT22;8368;48.772;8.754;2024-02-23T03:24:45;3.40;99.90
16511;DHT22;8368;48.772;8.754;2024-02-23T03:27:10;3.40;99.90
16511;DHT22;8368;48.772;8.754;2024-02-23T03:29:38;3.40;99.90
16511;DHT22;8368;48.772;8.754;2024-02-23T03:32:04;3.40;99.90
16511;DHT22;8368;48.772;8.754;2024-02-23T03:34:29;3.30;99.90
16511;DHT22;8368;48.772;8.754;2024-02-23T03:36:55;3.30;99.90
16511;DHT22;8368;48.772;8.754;2024-02-23T03:39:20;3.40;99.90
16511;DHT22;8368;48.772;8.754;2024-02-23T03:41:46;3.40;99.90
16511;DHT22;8368;48.772;8.754;2024-02-23T03:44:12;3.40;99.90
16511;DHT22;8368;48.772;8.754;2024-02-23T03:46:37;3.40;99.90
16511;DHT22;8368;48.772;8.754;2024-02-23T03:49:03;3.30;99.90
16511;DHT22;8368;48.772;8.754;2024-02-23T03:51:28;3.30;99.90
16511;DHT22;8368;48.772;8.754;2024-02-23T03:53:54;3.30;99.90
16511;DHT22;8368;48.772;8.754;2024-02-23T03:56:19;3.20;99.90
16511;DHT22;8368;48.772;8.754;2024-02-23T03:58:45;3.20;99.90
16511;DHT22;8368;48.772;8.754;2024-02-23T04:01:10;3.20;99.90
16511;DHT22;8368;48.772;8.754;2024-02-23T04:03:36;3.20;99.90
16511;DHT22;8368;48.772;8.754;2024-02-23T04:06:02;3.20;99.90
16511;DHT22;8368;48.772;8.754;2024-02-23T04:08:27;3.20;99.90
16511;DHT22;8368;48.772;8.754;2024-02-23T04:10:53;3.20;99.90
16511;DHT22;8368;48.772;8.754;2024-02-23T04:13:19;3.10;99.90
16511;DHT22;8368;48.772;8.754;2024-02-23T04:15:45;3.10;99.90
16511;DHT22;8368;48.772;8.754;2024-02-23T04:18:11;3.10;99.90
16511;DHT22;8368;48.772;8.754;2024-02-23T04:20:36;3.00;99.90
16511;DHT22;8368;48.772;8.754;2024-02-23T04:23:02;3.00;99.90
16511;DHT22;8368;48.772;8.754;2024-02-23T04:25:27;3.00;99.90
16511;DHT22;8368;48.772;8.754;2024-02-23T04:27:53;3.00;99.90
16511;DHT22;8368;48.772;8.754;2024-02-23T04:30:18;3.00;99.90
16511;DHT22;8368;48.772;8.754;2024-02-23T04:32:44;3.00;99.90
16511;DHT22;8368;48.772;8.754;2024-02-23T04:35:10;3.00;99.90
16511;DHT22;8368;48.772;8.754;2024-02-23T04:37:35;3.00;99.90
16511;DHT22;8368;48.772;8.754;2024-02-23T04:40:01;2.90;99.90
16511;DHT22;8368;48.772;8.754;2024-02-23T04:42:27;2.90;99.90
16511;DHT22;8368;48.772;8.754;2024-02-23T04:44:53;2.90;99.90
16511;DHT22;8368;48.772;8.754;2024-02-23T04:47:20;2.90;99.90
16511;DHT22;8368;48.772;8.754;2024-02-23T04:49:46;2.90;99.90
16511;DHT22;8368;48.772;8.754;2024-02-23T04:52:11;2.90;99.90
16511;DHT22;8368;48.772;8.754;2024-02-23T04:54:37;2.80;99.90
16511;DHT22;8368;48.772;8.754;2024-02-23T04:57:02;2.80;99.90
16511;DHT22;8368;48.772;8.754;2024-02-23T04:59:28;2.80;99.90
16511;DHT22;8368;48.772;8.754;2024-02-23T05:01:55;2.80;99.90
16511;DHT22;8368;48.772;8.754;2024-02-23T05:04:20;2.80;99.90
16511;DHT22;8368;48.772;8.754;2024-02-23T05:06:46;2.80;99.90
16511;DHT22;8368;48.772;8.754;2024-02-23T05:09:12;2.70;99.90
16511;DHT22;8368;48.772;8.754;2024-02-23T05:11:37;2.60;99.90
16511;DHT22;8368;48.772;8.754;2024-02-23T05:14:03;2.50;99.90
16511;DHT22;8368;48.772;8.754;2024-02-23T05:16:28;2.50;99.90
16511;DHT22;8368;48.772;8.754;2024-02-23T05:18:54;2.40;99.90
16511;DHT22;8368;48.772;8.754;2024-02-23T05:21:19;2.40;99.90
16511;DHT22;8368;48.772;8.754;2024-02-23T05:23:45;2.50;99.90
16511;DHT22;8368;48.772;8.754;2024-02-23T05:26:11;2.50;99.90
16511;DHT22;8368;48.772;8.754;2024-02-23T05:28:37;2.50;99.90
16511;DHT22;8368;48.772;8.754;2024-02-23T05:31:03;2.50;99.90
16511;DHT22;8368;48.772;8.754;2024-02-23T05:33:30;2.50;99.90
16511;DHT22;8368;48.772;8.754;2024-02-23T05:35:55;2.50;99.90
16511;DHT22;8368;48.772;8.754;2024-02-23T05:38:21;2.50;99.90
16511;DHT22;8368;48.772;8.754;2024-02-23T05:40:46;2.50;99.90
16511;DHT22;8368;48.772;8.754;2024-02-23T05:43:13;2.40;99.90
16511;DHT22;8368;48.772;8.754;2024-02-23T05:45:39;2.40;99.90
16511;DHT22;8368;48.772;8.754;2024-02-23T05:48:05;2.40;99.90
16511;DHT22;8368;48.772;8.754;2024-02-23T05:50:30;2.30;99.90
16511;DHT22;8368;48.772;8.754;2024-02-23T05:52:56;2.30;99.90
16511;DHT22;8368;48.772;8.754;2024-02-23T05:55:22;2.20;99.90
16511;DHT22;8368;48.772;8.754;2024-02-23T05:57:47;2.20;99.90
16511;DHT22;8368;48.772;8.754;2024-02-23T06:00:13;2.20;99.90
16511;DHT22;8368;48.772;8.754;2024-02-23T06:02:40;2.10;99.90
16511;DHT22;8368;48.772;8.754;2024-02-23T06:05:05;2.10;99.90
16511;DHT22;8368;48.772;8.754;2024-02-23T06:07:33;2.10;99.90
16511;DHT22;8368;48.772;8.754;2024-02-23T06:10:00;2.00;99.90
16511;DHT22;8368;48.772;8.754;2024-02-23T06:12:26;2.00;99.90
16511;DHT22;8368;48.772;8.754;2024-02-23T06:14:52;2.00;99.90
16511;DHT22;8368;48.772;8.754;2024-02-23T06:17:18;2.10;99.90
16511;DHT22;8368;48.772;8.754;2024-02-23T06:19:43;2.20;99.90
16511;DHT22;8368;48.772;8.754;2024-02-23T06:22:09;2.30;99.90
16511;DHT22;8368;48.772;8.754;2024-02-23T06:24:36;2.30;99.90
16511;DHT22;8368;48.772;8.754;2024-02-23T06:27:01;2.20;99.90
16511;DHT22;8368;48.772;8.754;2024-02-23T06:29:28;2.20;99.90
16511;DHT22;8368;48.772;8.754;2024-02-23T06:31:54;2.10;99.90
16511;DHT22;8368;48.772;8.754;2024-02-23T06:34:20;2.10;99.90
16511;DHT22;8368;48.772;8.754;2024-02-23T06:36:46;2.00;99.90
16511;DHT22;8368;48.772;8.754;2024-02-23T06:39:11;1.90;99.90
16511;DHT22;8368;48.772;8.754;2024-02-23T06:41:38;1.90;99.90
16511;DHT22;8368;48.772;8.754;2024-02-23T06:44:04;1.80;99.90
16511;DHT22;8368;48.772;8.754;2024-02-23T06:46:30;1.80;99.90
16511;DHT22;8368;48.772;8.754;2024-02-23T06:48:55;1.80;99.90
16511;DHT22;8368;48.772;8.754;2024-02-23T06:51:21;1.70;99.90
16511;DHT22;8368;48.772;8.754;2024-02-23T06:53:47;1.70;99.90
16511;DHT22;8368;48.772;8.754;2024-02-23T06:56:12;1.70;99.90
16511;DHT22;8368;48.772;8.754;2024-02-23T06:58:38;1.70;99.90
16511;DHT22;8368;48.772;8.754;2024-02-23T07:01:04;1.70;99.90
16511;DHT22;8368;48.772;8.754;2024-02-23T07:03:34;1.80;99.90
16511;DHT22;8368;48.772;8.754;2024-02-23T07:06:00;1.80;99.90
16511;DHT22;8368;48.772;8.754;2024-02-23T07:08:26;1.80;99.90
16511;DHT22;8368;48.772;8.754;2024-02-23T07:10:51;1.80;99.90
16511;DHT22;8368;48.772;8.754;2024-02-23T07:13:17;1.90;99.90
16511;DHT22;8368;48.772;8.754;2024-02-23T07:15:43;1.90;99.90
16511;DHT22;8368;48.772;8.754;2024-02-23T07:18:09;1.90;99.90
16511;DHT22;8368;48.772;8.754;2024-02-23T07:20:36;1.90;99.90
16511;DHT22;8368;48.772;8.754;2024-02-23T07:23:01;2.00;99.90
16511;DHT22;8368;48.772;8.754;2024-02-23T07:25:27;2.00;99.90
16511;DHT22;8368;48.772;8.754;2024-02-23T07:27:52;2.10;99.90
16511;DHT22;8368;48.772;8.754;2024-02-23T07:30:18;2.20;99.90
16511;DHT22;8368;48.772;8.754;2024-02-23T07:32:44;2.30;99.90
16511;DHT22;8368;48.772;8.754;2024-02-23T07:35:10;2.30;99.90
16511;DHT22;8368;48.772;8.754;2024-02-23T07:37:36;2.40;99.90
16511;DHT22;8368;48.772;8.754;2024-02-23T07:40:03;2.40;99.90
16511;DHT22;8368;48.772;8.754;2024-02-23T07:42:30;2.40;99.90
16511;DHT22;8368;48.772;8.754;2024-02-23T07:44:56;2.40;99.90
16511;DHT22;8368;48.772;8.754;2024-02-23T07:47:21;2.40;99.90
16511;DHT22;8368;48.772;8.754;2024-02-23T07:49:47;2.30;99.90
16511;DHT22;8368;48.772;8.754;2024-02-23T07:52:12;2.30;99.90
16511;DHT22;8368;48.772;8.754;2024-02-23T07:54:38;2.20;99.90
16511;DHT22;8368;48.772;8.754;2024-02-23T07:57:04;2.20;99.90
16511;DHT22;8368;48.772;8.754;2024-02-23T07:59:32;2.20;99.90
16511;DHT22;8368;48.772;8.754;2024-02-23T08:01:58;2.20;99.90
16511;DHT22;8368;48.772;8.754;2024-02-23T08:04:24;2.10;99.90
16511;DHT22;8368;48.772;8.754;2024-02-23T08:06:49;2.10;99.90
16511;DHT22;8368;48.772;8.754;2024-02-23T08:09:16;2.10;99.90
16511;DHT22;8368;48.772;8.754;2024-02-23T08:11:42;2.20;99.90
16511;DHT22;8368;48.772;8.754;2024-02-23T08:14:07;2.20;99.90
16511;DHT22;8368;48.772;8.754;2024-02-23T08:16:33;2.30;99.90
16511;DHT22;8368;48.772;8.754;2024-02-23T08:18:59;2.40;99.90
16511;DHT22;8368;48.772;8.754;2024-02-23T08:21:25;2.50;99.90
16511;DHT22;8368;48.772;8.754;2024-02-23T08:23:51;2.70;99.90
16511;DHT22;8368;48.772;8.754;2024-02-23T08:26:17;2.80;99.90
16511;DHT22;8368;48.772;8.754;2024-02-23T08:28:42;2.90;99.90
16511;DHT22;8368;48.772;8.754;2024-02-23T08:31:08;3.00;99.90
16511;DHT22;8368;48.772;8.754;2024-02-23T08:33:33;3.00;99.90
16511;DHT22;8368;48.772;8.754;2024-02-23T08:35:59;3.20;99.90
16511;DHT22;8368;48.772;8.754;2024-02-23T08:38:25;3.20;99.90
16511;DHT22;8368;48.772;8.754;2024-02-23T08:40:50;3.20;99.90
16511;DHT22;8368;48.772;8.754;2024-02-23T08:43:16;3.40;99.90
16511;DHT22;8368;48.772;8.754;2024-02-23T08:45:42;3.40;99.90
16511;DHT22;8368;48.772;8.754;2024-02-23T08:48:07;3.50;99.90
16511;DHT22;8368;48.772;8.754;2024-02-23T08:50:34;3.50;99.90
16511;DHT22;8368;48.772;8.754;2024-02-23T08:52:59;3.60;99.90
16511;DHT22;8368;48.772;8.754;2024-02-23T08:55:25;3.50;99.90
16511;DHT22;8368;48.772;8.754;2024-02-23T08:57:50;3.50;99.90
16511;DHT22;8368;48.772;8.754;2024-02-23T09:00:16;3.50;99.90
16511;DHT22;8368;48.772;8.754;2024-02-23T09:02:42;3.60;99.90
16511;DHT22;8368;48.772;8.754;2024-02-23T09:05:08;3.60;99.90
16511;DHT22;8368;48.772;8.754;2024-02-23T09:07:34;3.70;99.90
16511;DHT22;8368;48.772;8.754;2024-02-23T09:09:59;3.80;99.90
16511;DHT22;8368;48.772;8.754;2024-02-23T09:12:25;3.90;99.90
16511;DHT22;8368;48.772;8.754;2024-02-23T09:14:51;3.90;99.90
16511;DHT22;8368;48.772;8.754;2024-02-23T09:17:17;4.00;99.90
16511;DHT22;8368;48.772;8.754;2024-02-23T09:19:44;4.20;99.90
16511;DHT22;8368;48.772;8.754;2024-02-23T09:22:09;4.20;99.90
16511;DHT22;8368;48.772;8.754;2024-02-23T09:24:38;4.30;99.90
16511;DHT22;8368;48.772;8.754;2024-02-23T09:27:04;4.40;99.90
16511;DHT22;8368;48.772;8.754;2024-02-23T09:29:29;4.60;99.90
16511;DHT22;8368;48.772;8.754;2024-02-23T09:31:55;4.80;99.90
16511;DHT22;8368;48.772;8.754;2024-02-23T09:34:20;5.00;99.90
16511;DHT22;8368;48.772;8.754;2024-02-23T09:36:46;5.10;99.90
16511;DHT22;8368;48.772;8.754;2024-02-23T09:39:11;5.40;99.90
16511;DHT22;8368;48.772;8.754;2024-02-23T09:41:37;5.50;99.90
16511;DHT22;8368;48.772;8.754;2024-02-23T09:44:04;5.70;99.90
16511;DHT22;8368;48.772;8.754;2024-02-23T09:46:32;5.90;99.90
16511;DHT22;8368;48.772;8.754;2024-02-23T09:48:59;5.90;99.90
16511;DHT22;8368;48.772;8.754;2024-02-23T09:51:25;6.00;99.90
16511;DHT22;8368;48.772;8.754;2024-02-23T09:53:51;6.00;99.90
16511;DHT22;8368;48.772;8.754;2024-02-23T09:56:17;6.00;99.90
16511;DHT22;8368;48.772;8.754;2024-02-23T09:58:46;6.10;99.90
16511;DHT22;8368;48.772;8.754;2024-02-23T10:01:19;6.30;99.90
16511;DHT22;8368;48.772;8.754;2024-02-23T10:03:47;6.50;99.90
16511;DHT22;8368;48.772;8.754;2024-02-23T10:06:13;6.70;99.90
16511;DHT22;8368;48.772;8.754;2024-02-23T10:08:38;6.80;99.90
16511;DHT22;8368;48.772;8.754;2024-02-23T10:11:04;7.00;99.90
16511;DHT22;8368;48.772;8.754;2024-02-23T10:13:30;7.30;99.90
16511;DHT22;8368;48.772;8.754;2024-02-23T10:15:56;7.40;99.90
16511;DHT22;8368;48.772;8.754;2024-02-23T10:18:22;7.50;99.90
16511;DHT22;8368;48.772;8.754;2024-02-23T10:20:49;7.70;99.90
16511;DHT22;8368;48.772;8.754;2024-02-23T10:23:16;7.50;99.90
16511;DHT22;8368;48.772;8.754;2024-02-23T10:25:41;7.60;99.90
16511;DHT22;8368;48.772;8.754;2024-02-23T10:28:07;7.50;99.90
16511;DHT22;8368;48.772;8.754;2024-02-23T10:30:33;7.40;99.90
16511;DHT22;8368;48.772;8.754;2024-02-23T10:32:59;7.40;99.90
16511;DHT22;8368;48.772;8.754;2024-02-23T10:35:25;7.20;99.90
16511;DHT22;8368;48.772;8.754;2024-02-23T10:37:53;7.30;99.90
16511;DHT22;8368;48.772;8.754;2024-02-23T10:40:20;7.20;99.90
16511;DHT22;8368;48.772;8.754;2024-02-23T10:42:48;7.30;99.90
16511;DHT22;8368;48.772;8.754;2024-02-23T10:45:21;7.20;99.90
16511;DHT22;8368;48.772;8.754;2024-02-23T10:47:50;7.20;99.90
16511;DHT22;8368;48.772;8.754;2024-02-23T10:50:17;7.10;99.90
16511;DHT22;8368;48.772;8.754;2024-02-23T10:52:45;7.20;99.90
16511;DHT22;8368;48.772;8.754;2024-02-23T10:55:12;7.20;99.90
16511;DHT22;8368;48.772;8.754;2024-02-23T10:57:38;7.20;99.90
16511;DHT22;8368;48.772;8.754;2024-02-23T11:00:05;7.20;99.90
16511;DHT22;8368;48.772;8.754;2024-02-23T11:02:38;7.20;99.90
16511;DHT22;8368;48.772;8.754;2024-02-23T11:05:05;7.10;99.90
16511;DHT22;8368;48.772;8.754;2024-02-23T11:07:30;6.90;99.90
16511;DHT22;8368;48.772;8.754;2024-02-23T11:09:59;6.90;99.90
16511;DHT22;8368;48.772;8.754;2024-02-23T11:12:26;6.80;99.90
16511;DHT22;8368;48.772;8.754;2024-02-23T11:15:00;6.70;99.90
16511;DHT22;8368;48.772;8.754;2024-02-23T11:17:32;6.70;99.90
16511;DHT22;8368;48.772;8.754;2024-02-23T11:20:02;6.80;99.90
16511;DHT22;8368;48.772;8.754;2024-02-23T11:22:30;6.70;99.90
16511;DHT22;8368;48.772;8.754;2024-02-23T11:25:00;6.70;99.90
16511;DHT22;8368;48.772;8.754;2024-02-23T11:27:30;6.70;99.90
16511;DHT22;8368;48.772;8.754;2024-02-23T11:30:17;6.60;99.90
16511;DHT22;8368;48.772;8.754;2024-02-23T11:32:44;6.50;99.90
16511;DHT22;8368;48.772;8.754;2024-02-23T11:35:12;6.60;99.90
16511;DHT22;8368;48.772;8.754;2024-02-23T11:37:54;6.60;99.90
16511;DHT22;8368;48.772;8.754;2024-02-23T11:40:25;6.60;99.90
16511;DHT22;8368;48.772;8.754;2024-02-23T11:42:50;6.70;99.90
16511;DHT22;8368;48.772;8.754;2024-02-23T11:45:16;6.70;99.90
16511;DHT22;8368;48.772;8.754;2024-02-23T11:47:42;6.80;99.90
16511;DHT22;8368;48.772;8.754;2024-02-23T11:50:09;6.70;99.90
16511;DHT22;8368;48.772;8.754;2024-02-23T11:52:36;6.80;99.90
16511;DHT22;8368;48.772;8.754;2024-02-23T11:55:02;6.80;99.90
16511;DHT22;8368;48.772;8.754;2024-02-23T11:57:28;6.80;99.90
16511;DHT22;8368;48.772;8.754;2024-02-23T11:59:54;6.90;99.90
16511;DHT22;8368;48.772;8.754;2024-02-23T12:02:20;6.90;99.90
16511;DHT22;8368;48.772;8.754;2024-02-23T12:04:46;6.90;99.90
16511;DHT22;8368;48.772;8.754;2024-02-23T12:07:12;6.90;99.90
16511;DHT22;8368;48.772;8.754;2024-02-23T12:09:37;6.90;99.90
16511;DHT22;8368;48.772;8.754;2024-02-23T12:12:06;6.90;99.90
16511;DHT22;8368;48.772;8.754;2024-02-23T12:14:34;6.90;99.90
16511;DHT22;8368;48.772;8.754;2024-02-23T12:17:02;6.90;99.90
16511;DHT22;8368;48.772;8.754;2024-02-23T12:19:29;7.00;99.90
16511;DHT22;8368;48.772;8.754;2024-02-23T12:22:02;7.00;99.90
16511;DHT22;8368;48.772;8.754;2024-02-23T12:24:29;7.10;99.90
16511;DHT22;8368;48.772;8.754;2024-02-23T12:26:55;7.10;99.90
16511;DHT22;8368;48.772;8.754;2024-02-23T12:29:21;7.00;99.90
16511;DHT22;8368;48.772;8.754;2024-02-23T12:31:47;7.00;99.90
16511;DHT22;8368;48.772;8.754;2024-02-23T12:34:13;7.10;99.90
16511;DHT22;8368;48.772;8.754;2024-02-23T12:36:39;7.40;99.90
16511;DHT22;8368;48.772;8.754;2024-02-23T12:39:05;7.70;99.90
16511;DHT22;8368;48.772;8.754;2024-02-23T12:41:30;7.90;99.90
16511;DHT22;8368;48.772;8.754;2024-02-23T12:43:56;8.00;99.90
16511;DHT22;8368;48.772;8.754;2024-02-23T12:46:22;8.10;99.90
16511;DHT22;8368;48.772;8.754;2024-02-23T12:48:49;8.00;99.90
16511;DHT22;8368;48.772;8.754;2024-02-23T12:51:14;7.80;99.90
16511;DHT22;8368;48.772;8.754;2024-02-23T12:53:41;7.80;99.90
16511;DHT22;8368;48.772;8.754;2024-02-23T12:56:11;8.00;99.90
16511;DHT22;8368;48.772;8.754;2024-02-23T12:58:38;8.20;99.90
16511;DHT22;8368;48.772;8.754;2024-02-23T13:01:04;8.40;99.90
16511;DHT22;8368;48.772;8.754;2024-02-23T13:03:30;8.40;99.90
16511;DHT22;8368;48.772;8.754;2024-02-23T13:05:58;8.30;99.90
16511;DHT22;8368;48.772;8.754;2024-02-23T13:08:25;8.20;99.90
16511;DHT22;8368;48.772;8.754;2024-02-23T13:10:51;8.00;99.90
16511;DHT22;8368;48.772;8.754;2024-02-23T13:13:18;7.80;99.90
16511;DHT22;8368;48.772;8.754;2024-02-23T13:15:44;7.70;99.90
16511;DHT22;8368;48.772;8.754;2024-02-23T13:18:09;7.70;99.90
16511;DHT22;8368;48.772;8.754;2024-02-23T13:20:39;7.60;99.90
16511;DHT22;8368;48.772;8.754;2024-02-23T13:23:05;7.60;99.90
16511;DHT22;8368;48.772;8.754;2024-02-23T13:25:34;7.60;99.90
16511;DHT22;8368;48.772;8.754;2024-02-23T13:27:59;7.70;99.90
16511;DHT22;8368;48.772;8.754;2024-02-23T13:30:25;7.70;99.90
16511;DHT22;8368;48.772;8.754;2024-02-23T13:32:50;7.70;99.90
16511;DHT22;8368;48.772;8.754;2024-02-23T13:35:16;7.60;99.90
16511;DHT22;8368;48.772;8.754;2024-02-23T13:37:43;7.50;99.90
16511;DHT22;8368;48.772;8.754;2024-02-23T13:40:09;7.50;99.90
16511;DHT22;8368;48.772;8.754;2024-02-23T13:42:35;7.50;99.90
16511;DHT22;8368;48.772;8.754;2024-02-23T13:45:01;7.40;99.90
16511;DHT22;8368;48.772;8.754;2024-02-23T13:47:26;7.40;99.90
16511;DHT22;8368;48.772;8.754;2024-02-23T13:49:52;7.40;99.90
16511;DHT22;8368;48.772;8.754;2024-02-23T13:52:18;7.40;99.90
16511;DHT22;8368;48.772;8.754;2024-02-23T13:54:43;7.40;99.90
16511;DHT22;8368;48.772;8.754;2024-02-23T13:57:09;7.60;99.90
16511;DHT22;8368;48.772;8.754;2024-02-23T13:59:34;8.30;99.90
16511;DHT22;8368;48.772;8.754;2024-02-23T14:02:00;8.80;99.90
16511;DHT22;8368;48.772;8.754;2024-02-23T14:04:25;8.90;99.90
16511;DHT22;8368;48.772;8.754;2024-02-23T14:06:51;9.00;99.90
16511;DHT22;8368;48.772;8.754;2024-02-23T14:09:17;8.70;99.90
16511;DHT22;8368;48.772;8.754;2024-02-23T14:11:42;8.50;99.90
16511;DHT22;8368;48.772;8.754;2024-02-23T14:14:08;8.20;99.90
16511;DHT22;8368;48.772;8.754;2024-02-23T14:16:34;8.00;99.90
16511;DHT22;8368;48.772;8.754;2024-02-23T14:19:00;8.10;99.90
16511;DHT22;8368;48.772;8.754;2024-02-23T14:21:25;8.30;99.90
16511;DHT22;8368;48.772;8.754;2024-02-23T14:23:52;8.30;99.90
16511;DHT22;8368;48.772;8.754;2024-02-23T14:26:17;8.20;99.90
16511;DHT22;8368;48.772;8.754;2024-02-23T14:28:43;8.20;99.90
16511;DHT22;8368;48.772;8.754;2024-02-23T14:31:08;8.10;99.90
16511;DHT22;8368;48.772;8.754;2024-02-23T14:33:34;8.00;99.90
16511;DHT22;8368;48.772;8.754;2024-02-23T14:35:59;7.70;99.90
16511;DHT22;8368;48.772;8.754;2024-02-23T14:38:25;7.60;99.90
16511;DHT22;8368;48.772;8.754;2024-02-23T14:40:51;7.60;99.90
16511;DHT22;8368;48.772;8.754;2024-02-23T14:43:18;7.40;99.90
16511;DHT22;8368;48.772;8.754;2024-02-23T14:45:44;7.30;99.90
16511;DHT22;8368;48.772;8.754;2024-02-23T14:48:09;7.20;99.90
16511;DHT22;8368;48.772;8.754;2024-02-23T14:50:35;7.10;99.90
16511;DHT22;8368;48.772;8.754;2024-02-23T14:53:01;7.00;99.90
16511;DHT22;8368;48.772;8.754;2024-02-23T14:55:26;6.90;99.90
16511;DHT22;8368;48.772;8.754;2024-02-23T14:57:52;7.00;99.90
16511;DHT22;8368;48.772;8.754;2024-02-23T15:00:18;7.00;99.90
16511;DHT22;8368;48.772;8.754;2024-02-23T15:02:43;7.00;99.90
16511;DHT22;8368;48.772;8.754;2024-02-23T15:05:09;7.10;99.90
16511;DHT22;8368;48.772;8.754;2024-02-23T15:07:35;7.10;99.90
16511;DHT22;8368;48.772;8.754;2024-02-23T15:10:01;7.20;99.90
16511;DHT22;8368;48.772;8.754;2024-02-23T15:12:31;7.30;99.90
16511;DHT22;8368;48.772;8.754;2024-02-23T15:14:57;7.40;99.90
16511;DHT22;8368;48.772;8.754;2024-02-23T15:17:22;7.30;99.90
16511;DHT22;8368;48.772;8.754;2024-02-23T15:19:48;7.20;99.90
16511;DHT22;8368;48.772;8.754;2024-02-23T15:22:14;7.10;99.90
16511;DHT22;8368;48.772;8.754;2024-02-23T15:24:40;7.10;99.90
16511;DHT22;8368;48.772;8.754;2024-02-23T15:27:08;6.90;99.90
16511;DHT22;8368;48.772;8.754;2024-02-23T15:29:34;7.00;99.90
16511;DHT22;8368;48.772;8.754;2024-02-23T15:31:59;6.90;99.90
16511;DHT22;8368;48.772;8.754;2024-02-23T15:34:26;6.70;99.90
16511;DHT22;8368;48.772;8.754;2024-02-23T15:36:52;6.50;99.90
16511;DHT22;8368;48.772;8.754;2024-02-23T15:39:17;6.30;99.90
16511;DHT22;8368;48.772;8.754;2024-02-23T15:41:43;6.30;99.90
16511;DHT22;8368;48.772;8.754;2024-02-23T15:44:08;6.10;99.90
16511;DHT22;8368;48.772;8.754;2024-02-23T15:46:34;6.10;99.90
16511;DHT22;8368;48.772;8.754;2024-02-23T15:48:59;6.20;99.90
16511;DHT22;8368;48.772;8.754;2024-02-23T15:51:25;6.20;99.90
16511;DHT22;8368;48.772;8.754;2024-02-23T15:53:51;6.30;99.90